Antonia, MO

9:56 AM CDT on May 23, 2015 (GMT -0500)
summerfield | | Change Station
CLOSE
Current Station
Personal Weather Station
Location: Imperial, MO
Elevation: 440 ft
Nearby Weather Stations

Elev 440 ft 38.38 °N, 90.40 °W | Updated 13 seconds ago

Mostly Cloudy
Mostly Cloudy
74.5 °F
Feels Like 77 °F
N
3.6
Wind Variable Wind from SSW
Gusts 4.9 mph

Today
High -- | Low -- °F
--% Chance of Precip.
Yesterday
High -- | Low -- °F
Precip. -- in
5:44 AM 8:12 PM
Waxing Crescent, 30% visible
Pressure 30.32 in
Visibility 10.0 miles
Clouds Overcast 9000 ft
Heat Index 77 °F
Dew Point 57 °F
Humidity 55%
Rainfall 0.00 in
Snow Depth Not available.
UV 1 out of 12
Pollen 8.10 out of 12
Air Quality Not available.
Flu Activity Sporadic
METAR KCPS 231353Z 13005KT 10SM OVC090 21/12 A3033 RMK AO2 SLP266 T02060122

More Conditions Fewer Conditions

Pressure 30.32 in
Visibility 10.0 miles
Clouds Overcast 9000 ft
Heat Index 77 °F
Dew Point 57 °F
Humidity 55%
Rainfall 0.00 in
Snow Depth Not available.
UV 1 out of 12
Pollen 8.10 out of 12
Air Quality Not available.
Flu Activity Sporadic
METAR KCPS 231353Z 13005KT 10SM OVC090 21/12 A3033 RMK AO2 SLP266 T02060122

More Conditions Fewer Conditions

10-Day Weather Forecast

Almanac

Astronomy

May. 23, 2015 Rise Set
Actual Time
Civil Twilight
Nautical Twilight
Astronomical Twilight
Moon
Length of Visible Light
Length of Day
Tomorrow will be .
, % of the Moon is Illuminated

Today's Extremes

State Highs State Lows

Community

WunderPhotos

Upload Photos

1,823,480 photos uploaded!

WunderBlogs® & News

Nearby

Air Quality

  Air Quality AQ Index Pollutant
Not available.

Snow Depth

Station Depth Elevation

Earthquake Activity

City Distance Mag. Time & Date
Minimum magnitude displayed is 2.5.

Coastal Water Temperatures

Place Temperature

Stations

Nearby Weather Stations

Station Location Temp. Windchill Dew Point Humidity Wind Precip. Elev Updated Type